Time;durP1;ratioP1;P1;durP2;ratioP2;P2;SDS_P1;SDS_P2;PMS_P1;PMS_P2;Temp;Humidity;BMP_temperature;BMP_pressure;BME280_temperature;BME280_humidity;BME280_pressure;Samples;Min_cycle;Max_cycle;Signal;HPM_P1;HPM_P2
2022/08/31 00:06:01;;;;;;;3.97;2.50;;;;;;;;;;5155772;27;20029;-58
2022/08/31 00:08:27;;;;;;;4.93;2.45;;;;;;;;;;5155716;27;20069;-58
2022/08/31 00:10:54;;;;;;;4.15;2.35;;;;;;;;;;5155708;27;20027;-58
2022/08/31 00:13:24;;;;;;;5.45;3.38;;;;;;;;;;5156478;27;20436;-58
2022/08/31 00:15:51;;;;;;;3.67;2.90;;;;;;;;;;5156216;27;20022;-58
2022/08/31 00:18:17;;;;;;;6.65;2.80;;;;;;;;;;5155661;27;20029;-58
2022/08/31 00:20:44;;;;;;;3.38;2.42;;;;;;;;;;5155505;27;20050;-58
2022/08/31 00:23:11;;;;;;;5.82;2.58;;;;;;;;;;5155850;27;20360;-58
2022/08/31 00:25:38;;;;;;;5.30;3.38;;;;;;;;;;5155496;27;20031;-58
2022/08/31 00:28:04;;;;;;;4.60;3.13;;;;;;;;;;5155487;27;20097;-58
2022/08/31 00:30:31;;;;;;;3.70;2.83;;;;;;;;;;5155941;27;20023;-58
2022/08/31 00:32:57;;;;;;;5.70;3.35;;;;;;;;;;5159799;27;20031;-58
2022/08/31 00:35:23;;;;;;;4.65;3.20;;;;;;;;;;5160315;27;20227;-58
2022/08/31 00:37:49;;;;;;;4.88;3.42;;;;;;;;;;5159995;27;20094;-57
2022/08/31 00:40:15;;;;;;;6.18;3.35;;;;;;;;;;5159594;27;20110;-58
2022/08/31 00:42:41;;;;;;;5.18;3.65;;;;;;;;;;5160091;27;20073;-58
2022/08/31 00:45:08;;;;;;;6.00;4.03;;;;;;;;;;5159814;27;20460;-58
2022/08/31 00:47:34;;;;;;;4.72;3.75;;;;;;;;;;5159506;27;20133;-58
2022/08/31 00:50:01;;;;;;;3.50;2.85;;;;;;;;;;5159518;27;20388;-58
2022/08/31 00:52:30;;;;;;;4.97;3.75;;;;;;;;;;5159455;27;20476;-58
2022/08/31 00:54:59;;;;;;;6.57;3.50;;;;;;;;;;5159655;27;20027;-58
2022/08/31 00:57:28;;;;;;;7.25;4.47;;;;;;;;;;5159557;27;20026;-58
2022/08/31 00:59:54;;;;;;;4.80;3.58;;;;;;;;;;5159184;27;20034;-58
2022/08/31 01:02:20;;;;;;;5.80;4.43;;;;;;;;;;5159703;27;20026;-58
2022/08/31 01:04:46;;;;;;;5.43;4.28;;;;;;;;;;5159302;27;20110;-58
2022/08/31 01:07:13;;;;;;;4.93;4.43;;;;;;;;;;5159191;27;20023;-58
2022/08/31 01:09:40;;;;;;;4.95;4.22;;;;;;;;;;5159608;27;20069;-58
2022/08/31 01:12:07;;;;;;;5.70;4.30;;;;;;;;;;5159075;27;20027;-58
2022/08/31 01:14:34;;;;;;;6.13;4.75;;;;;;;;;;5159123;27;20023;-58
2022/08/31 01:17:00;;;;;;;5.97;4.95;;;;;;;;;;5159005;27;20029;-58
2022/08/31 01:19:26;;;;;;;8.90;5.72;;;;;;;;;;5158799;27;20027;-58
2022/08/31 01:21:56;;;;;;;7.93;5.43;;;;;;;;;;5159162;27;20021;-58
2022/08/31 01:24:24;;;;;;;8.57;5.97;;;;;;;;;;5159418;27;20364;-58
2022/08/31 01:26:51;;;;;;;5.00;4.25;;;;;;;;;;5159346;27;20480;-58
2022/08/31 01:29:17;;;;;;;7.70;6.20;;;;;;;;;;5158673;27;20045;-58
2022/08/31 01:31:44;;;;;;;12.52;5.90;;;;;;;;;;5158676;27;20454;-58
2022/08/31 01:34:11;;;;;;;7.75;5.78;;;;;;;;;;5158710;27;20503;-58
2022/08/31 01:36:38;;;;;;;10.15;5.50;;;;;;;;;;5158624;27;20038;-58
2022/08/31 01:39:05;;;;;;;9.02;6.53;;;;;;;;;;5159056;27;20030;-58
2022/08/31 01:41:31;;;;;;;8.10;6.07;;;;;;;;;;5157974;27;20026;-58
2022/08/31 01:43:57;;;;;;;6.25;5.50;;;;;;;;;;5158770;27;20030;-58
2022/08/31 01:46:23;;;;;;;10.90;6.40;;;;;;;;;;5158354;27;20484;-58
2022/08/31 01:48:49;;;;;;;13.18;7.60;;;;;;;;;;5158644;27;20023;-58
2022/08/31 01:51:17;;;;;;;8.15;6.82;;;;;;;;;;5157953;27;20046;-58
2022/08/31 01:53:45;;;;;;;8.35;6.68;;;;;;;;;;5158232;27;20050;-58
2022/08/31 01:56:13;;;;;;;12.02;7.05;;;;;;;;;;5158663;27;20068;-58
2022/08/31 01:58:39;;;;;;;10.90;7.53;;;;;;;;;;5158575;27;20022;-58
2022/08/31 02:01:05;;;;;;;7.97;6.57;;;;;;;;;;5158396;27;20030;-57
2022/08/31 02:03:31;;;;;;;7.75;6.60;;;;;;;;;;5158832;27;20117;-58
2022/08/31 02:05:57;;;;;;;11.95;6.95;;;;;;;;;;5157954;27;20039;-58
2022/08/31 02:08:23;;;;;;;9.55;7.70;;;;;;;;;;5158500;27;20023;-58
2022/08/31 02:10:49;;;;;;;11.48;8.15;;;;;;;;;;5159035;27;20101;-57
2022/08/31 02:13:15;;;;;;;10.10;7.28;;;;;;;;;;5158470;27;20019;-58
2022/08/31 02:15:41;;;;;;;7.90;7.18;;;;;;;;;;5157887;27;20018;-57
2022/08/31 02:18:07;;;;;;;7.65;6.63;;;;;;;;;;5157746;27;20034;-58
2022/08/31 02:20:33;;;;;;;11.52;7.47;;;;;;;;;;5157028;27;20047;-57
2022/08/31 02:23:02;;;;;;;9.05;8.15;;;;;;;;;;5158317;27;20033;-57
2022/08/31 02:25:28;;;;;;;8.70;7.82;;;;;;;;;;5157605;27;20348;-57
2022/08/31 02:27:54;;;;;;;12.27;8.15;;;;;;;;;;5157630;27;20071;-57
2022/08/31 02:30:20;;;;;;;8.18;6.60;;;;;;;;;;5158326;27;20451;-57
2022/08/31 02:32:46;;;;;;;9.90;8.82;;;;;;;;;;5158020;27;20063;-57
2022/08/31 02:35:12;;;;;;;8.07;7.28;;;;;;;;;;5157801;27;20494;-57
2022/08/31 02:37:38;;;;;;;10.10;7.90;;;;;;;;;;5157993;27;20333;-58
2022/08/31 02:40:05;;;;;;;9.10;8.18;;;;;;;;;;5157319;27;20038;-57
2022/08/31 02:42:31;;;;;;;11.38;8.38;;;;;;;;;;5157579;27;20463;-58
2022/08/31 02:44:57;;;;;;;8.98;7.38;;;;;;;;;;5157421;27;20022;-57
2022/08/31 02:47:23;;;;;;;11.63;8.55;;;;;;;;;;5157234;27;20440;-57
2022/08/31 02:49:49;;;;;;;8.82;7.35;;;;;;;;;;5157442;27;20080;-57
2022/08/31 02:52:15;;;;;;;8.88;7.90;;;;;;;;;;5156657;27;20129;-57
2022/08/31 02:54:41;;;;;;;14.27;8.10;;;;;;;;;;5156361;27;20018;-57
2022/08/31 02:57:07;;;;;;;7.80;7.00;;;;;;;;;;5157055;27;20096;-57
2022/08/31 02:59:33;;;;;;;10.32;8.30;;;;;;;;;;5157164;27;20030;-58
2022/08/31 03:01:59;;;;;;;9.35;8.05;;;;;;;;;;5156946;27;20448;-58
2022/08/31 03:04:25;;;;;;;9.50;6.95;;;;;;;;;;5157263;27;20068;-58
2022/08/31 03:06:51;;;;;;;8.43;7.60;;;;;;;;;;5157387;27;20090;-57
2022/08/31 03:09:17;;;;;;;9.70;7.80;;;;;;;;;;5156738;27;20372;-57
2022/08/31 03:11:43;;;;;;;8.30;7.45;;;;;;;;;;5156383;27;20488;-57
2022/08/31 03:14:09;;;;;;;9.07;7.80;;;;;;;;;;5157370;27;20030;-57
2022/08/31 03:16:35;;;;;;;10.05;8.27;;;;;;;;;;5157208;27;20022;-57
2022/08/31 03:19:01;;;;;;;9.88;7.65;;;;;;;;;;5157352;27;20030;-57
2022/08/31 03:21:27;;;;;;;11.32;8.02;;;;;;;;;;5157106;27;20483;-57
2022/08/31 03:23:53;;;;;;;10.13;7.65;;;;;;;;;;5156562;27;20528;-57
2022/08/31 03:26:19;;;;;;;11.80;7.80;;;;;;;;;;5157089;27;20023;-57
2022/08/31 03:28:45;;;;;;;8.98;7.88;;;;;;;;;;5156401;27;20348;-57
2022/08/31 03:31:11;;;;;;;11.02;8.18;;;;;;;;;;5156393;27;20438;-57
2022/08/31 03:33:37;;;;;;;8.85;7.97;;;;;;;;;;5156709;27;20030;-58
2022/08/31 03:36:04;;;;;;;8.07;7.28;;;;;;;;;;5156597;27;20062;-58
2022/08/31 03:38:30;;;;;;;8.23;7.43;;;;;;;;;;5156124;27;20018;-57
2022/08/31 03:40:57;;;;;;;9.75;8.75;;;;;;;;;;5156515;27;20027;-57
2022/08/31 03:43:23;;;;;;;9.70;8.70;;;;;;;;;;5156761;27;20014;-57
2022/08/31 03:45:49;;;;;;;9.38;7.63;;;;;;;;;;5156817;27;20330;-58
2022/08/31 03:48:15;;;;;;;8.60;7.00;;;;;;;;;;5155836;27;20037;-58
2022/08/31 03:50:41;;;;;;;8.80;7.95;;;;;;;;;;5155836;27;20018;-59
2022/08/31 03:53:08;;;;;;;8.25;7.45;;;;;;;;;;5156088;27;20018;-58
2022/08/31 03:55:36;;;;;;;8.75;7.88;;;;;;;;;;5155980;27;20076;-57
2022/08/31 03:58:02;;;;;;;10.27;7.78;;;;;;;;;;5155952;27;20151;-58
2022/08/31 04:00:28;;;;;;;8.23;7.15;;;;;;;;;;5155773;27;20026;-58
2022/08/31 04:02:56;;;;;;;10.23;8.55;;;;;;;;;;5156113;27;20030;-57
2022/08/31 04:05:22;;;;;;;9.02;7.20;;;;;;;;;;5155731;27;20515;-58
2022/08/31 04:07:48;;;;;;;8.80;7.90;;;;;;;;;;5156584;27;20103;-58
2022/08/31 04:10:14;;;;;;;9.32;7.75;;;;;;;;;;5155785;27;20026;-57
2022/08/31 04:12:40;;;;;;;9.57;7.40;;;;;;;;;;5155690;27;20015;-57
2022/08/31 04:15:06;;;;;;;9.48;8.27;;;;;;;;;;5156271;27;20049;-58
2022/08/31 04:17:33;;;;;;;7.97;7.18;;;;;;;;;;5155551;27;20019;-57
2022/08/31 04:19:59;;;;;;;8.80;7.90;;;;;;;;;;5155875;27;20035;-58
2022/08/31 04:22:25;;;;;;;8.20;7.40;;;;;;;;;;5156120;27;20113;-57
2022/08/31 04:24:51;;;;;;;8.60;7.70;;;;;;;;;;5155923;27;20463;-58
2022/08/31 04:27:17;;;;;;;11.18;7.72;;;;;;;;;;5155562;27;20031;-57
2022/08/31 04:29:42;;;;;;;9.07;8.13;;;;;;;;;;5156068;27;20031;-57
2022/08/31 04:32:08;;;;;;;10.10;9.02;;;;;;;;;;5155523;27;20023;-58
2022/08/31 04:34:34;;;;;;;10.77;8.27;;;;;;;;;;5155834;27;20019;-58
2022/08/31 04:37:00;;;;;;;9.52;8.57;;;;;;;;;;5155761;27;20102;-57
2022/08/31 04:39:26;;;;;;;10.18;8.02;;;;;;;;;;5155062;27;20030;-58
2022/08/31 04:41:52;;;;;;;9.20;8.30;;;;;;;;;;5155417;27;20098;-58
2022/08/31 04:44:18;;;;;;;9.70;8.48;;;;;;;;;;5155678;27;20097;-58
2022/08/31 04:46:44;;;;;;;8.32;7.45;;;;;;;;;;5155398;27;20048;-57
2022/08/31 04:49:13;;;;;;;9.15;8.35;;;;;;;;;;5155357;27;20484;-57
2022/08/31 04:51:39;;;;;;;9.57;8.57;;;;;;;;;;5155145;27;20441;-57
2022/08/31 04:54:06;;;;;;;9.70;8.48;;;;;;;;;;5155609;27;20498;-58
2022/08/31 04:56:33;;;;;;;7.90;7.10;;;;;;;;;;5155335;27;20023;-57
2022/08/31 04:59:01;;;;;;;10.75;9.68;;;;;;;;;;5155161;27;20031;-58
2022/08/31 05:01:28;;;;;;;10.23;9.10;;;;;;;;;;5154968;27;20094;-58
2022/08/31 05:03:55;;;;;;;10.13;8.27;;;;;;;;;;5155272;27;20062;-58
2022/08/31 05:06:23;;;;;;;14.40;10.35;;;;;;;;;;5155131;27;20398;-58
2022/08/31 05:08:53;;;;;;;10.73;9.02;;;;;;;;;;5155192;27;20023;-58
2022/08/31 05:11:20;;;;;;;15.80;10.70;;;;;;;;;;5155135;27;20022;-57
2022/08/31 05:13:46;;;;;;;12.10;9.38;;;;;;;;;;5155728;27;20030;-58
2022/08/31 05:16:14;;;;;;;11.32;10.15;;;;;;;;;;5155081;27;20074;-57
2022/08/31 05:18:41;;;;;;;10.95;9.80;;;;;;;;;;5158559;27;20110;-58
2022/08/31 05:21:08;;;;;;;11.57;10.38;;;;;;;;;;5159263;27;20015;-58
2022/08/31 05:23:34;;;;;;;10.70;9.73;;;;;;;;;;5158877;27;20487;-58
2022/08/31 05:26:00;;;;;;;10.98;9.85;;;;;;;;;;5159501;27;20026;-58
2022/08/31 05:28:26;;;;;;;12.07;10.50;;;;;;;;;;5158827;27;20527;-57
2022/08/31 05:30:52;;;;;;;11.13;10.05;;;;;;;;;;5158735;27;20023;-58
2022/08/31 05:33:18;;;;;;;15.73;10.73;;;;;;;;;;5159091;27;20071;-58
2022/08/31 05:35:47;;;;;;;13.85;10.65;;;;;;;;;;5158979;27;20023;-57
2022/08/31 05:38:12;;;;;;;11.60;9.40;;;;;;;;;;5158591;27;20038;-58
2022/08/31 05:40:39;;;;;;;9.20;8.27;;;;;;;;;;5158830;27;20038;-58
2022/08/31 05:43:04;;;;;;;9.57;8.07;;;;;;;;;;5158585;27;20460;-58
2022/08/31 05:45:30;;;;;;;9.73;8.80;;;;;;;;;;5158397;27;20025;-58
2022/08/31 05:47:56;;;;;;;9.98;8.98;;;;;;;;;;5158770;27;20023;-58
2022/08/31 05:50:23;;;;;;;10.00;9.00;;;;;;;;;;5158335;27;20034;-57
2022/08/31 05:52:49;;;;;;;10.15;8.02;;;;;;;;;;5158469;27;20472;-58
2022/08/31 05:55:15;;;;;;;10.82;9.73;;;;;;;;;;5158818;27;20352;-58
2022/08/31 05:57:41;;;;;;;13.02;9.25;;;;;;;;;;5158239;27;20027;-58
2022/08/31 06:00:09;;;;;;;12.85;9.07;;;;;;;;;;5158693;27;20035;-58
2022/08/31 06:02:35;;;;;;;17.35;9.50;;;;;;;;;;5158138;27;20026;-58
2022/08/31 06:05:01;;;;;;;10.43;9.15;;;;;;;;;;5158176;27;20448;-58
2022/08/31 06:07:27;;;;;;;11.60;10.48;;;;;;;;;;5158341;27;20023;-58
2022/08/31 06:09:54;;;;;;;11.57;10.20;;;;;;;;;;5158287;27;20102;-58
2022/08/31 06:12:24;;;;;;;15.88;10.88;;;;;;;;;;5157926;27;20514;-58
2022/08/31 06:14:50;;;;;;;12.57;9.98;;;;;;;;;;5158791;27;20408;-57
2022/08/31 06:17:16;;;;;;;13.23;10.13;;;;;;;;;;5157907;27;20049;-58
2022/08/31 06:19:42;;;;;;;9.60;8.48;;;;;;;;;;5158286;27;20121;-57
2022/08/31 06:22:08;;;;;;;11.23;9.98;;;;;;;;;;5158312;27;20021;-58
2022/08/31 06:24:35;;;;;;;11.75;10.50;;;;;;;;;;5158324;27;20027;-58
2022/08/31 06:27:02;;;;;;;13.13;9.77;;;;;;;;;;5157623;27;20072;-58
2022/08/31 06:29:30;;;;;;;13.10;10.50;;;;;;;;;;5156383;27;20035;-58
2022/08/31 06:31:56;;;;;;;10.40;9.30;;;;;;;;;;5157848;27;20133;-58
2022/08/31 06:34:22;;;;;;;10.40;8.95;;;;;;;;;;5157889;27;20019;-58
2022/08/31 06:36:48;;;;;;;10.52;8.43;;;;;;;;;;5157374;27;20022;-58
2022/08/31 06:39:15;;;;;;;9.75;8.77;;;;;;;;;;5157257;27;20033;-58
2022/08/31 06:41:41;;;;;;;14.48;9.05;;;;;;;;;;5157393;27;20022;-58
2022/08/31 06:44:09;;;;;;;10.93;9.80;;;;;;;;;;5157416;27;20022;-57
2022/08/31 06:46:36;;;;;;;12.63;8.70;;;;;;;;;;5157081;27;20022;-58
2022/08/31 06:49:02;;;;;;;12.02;9.73;;;;;;;;;;5157205;27;20102;-58
2022/08/31 06:51:28;;;;;;;9.32;8.43;;;;;;;;;;5157030;27;20042;-59
2022/08/31 06:53:55;;;;;;;12.18;8.23;;;;;;;;;;5157118;27;20452;-59
2022/08/31 06:56:22;;;;;;;12.27;8.43;;;;;;;;;;5157065;27;20023;-59
2022/08/31 06:58:49;;;;;;;9.10;8.20;;;;;;;;;;5156945;27;20075;-59
2022/08/31 07:01:19;;;;;;;13.45;7.80;;;;;;;;;;5157025;27;20069;-59
2022/08/31 07:03:48;;;;;;;10.85;8.27;;;;;;;;;;5157788;27;20110;-59
2022/08/31 07:06:16;;;;;;;10.30;8.57;;;;;;;;;;5157087;27;20341;-58
2022/08/31 07:08:44;;;;;;;10.18;7.63;;;;;;;;;;5157337;27;20448;-59
2022/08/31 07:11:19;;;;;;;8.48;7.57;;;;;;;;;;5157347;27;20022;-59
2022/08/31 07:13:45;;;;;;;9.05;7.90;;;;;;;;;;5157036;27;20088;-58
2022/08/31 07:16:12;;;;;;;8.27;7.47;;;;;;;;;;5156687;27;20452;-59
2022/08/31 07:18:39;;;;;;;8.30;7.50;;;;;;;;;;5156496;27;20019;-59
2022/08/31 07:21:08;;;;;;;11.55;7.75;;;;;;;;;;5156608;27;20479;-59
2022/08/31 07:23:34;;;;;;;9.63;8.65;;;;;;;;;;5157385;27;20023;-59
2022/08/31 07:26:04;;;;;;;11.32;8.23;;;;;;;;;;5156561;27;20405;-59
2022/08/31 07:28:30;;;;;;;10.97;9.87;;;;;;;;;;5156426;27;20027;-59
2022/08/31 07:30:56;;;;;;;9.70;8.63;;;;;;;;;;5156366;27;20106;-59
2022/08/31 07:33:22;;;;;;;9.27;7.40;;;;;;;;;;5156477;27;20018;-59
2022/08/31 07:35:48;;;;;;;9.75;8.43;;;;;;;;;;5156372;27;20026;-59
2022/08/31 07:43:43;;;;;;;10.63;8.43;;;;;;;;;;5156212;27;20405;-59
2022/08/31 07:46:09;;;;;;;9.90;8.65;;;;;;;;;;5156636;27;20023;-59
2022/08/31 07:48:35;;;;;;;10.95;8.70;;;;;;;;;;5156020;27;20033;-59
2022/08/31 07:51:01;;;;;;;14.15;8.50;;;;;;;;;;5155762;27;20047;-59
2022/08/31 07:53:27;;;;;;;9.65;8.32;;;;;;;;;;5155919;27;20030;-59
2022/08/31 07:55:57;;;;;;;8.50;7.20;;;;;;;;;;5155941;27;20501;-58
2022/08/31 07:58:26;;;;;;;8.95;7.93;;;;;;;;;;5156527;27;20018;-59
2022/08/31 08:00:52;;;;;;;8.73;7.18;;;;;;;;;;5156362;27;20041;-59
2022/08/31 08:03:18;;;;;;;9.18;8.20;;;;;;;;;;5156228;27;20026;-59
2022/08/31 08:05:46;;;;;;;9.90;7.75;;;;;;;;;;5156313;27;20388;-59
2022/08/31 08:08:12;;;;;;;13.48;9.10;;;;;;;;;;5156241;27;20475;-59
2022/08/31 08:10:40;;;;;;;8.80;7.90;;;;;;;;;;5155685;27;20030;-59
2022/08/31 08:13:06;;;;;;;8.55;7.75;;;;;;;;;;5156043;27;20019;-59
2022/08/31 08:15:33;;;;;;;10.00;8.20;;;;;;;;;;5155573;27;20067;-59
2022/08/31 08:17:59;;;;;;;9.13;7.90;;;;;;;;;;5156190;27;20023;-59
2022/08/31 08:20:25;;;;;;;8.05;7.25;;;;;;;;;;5155425;27;20027;-59
2022/08/31 08:22:52;;;;;;;9.38;7.93;;;;;;;;;;5156180;27;20046;-59
2022/08/31 08:25:18;;;;;;;10.05;8.02;;;;;;;;;;5156080;27;20031;-59
2022/08/31 08:27:45;;;;;;;11.07;8.32;;;;;;;;;;5155560;27;20364;-59
2022/08/31 08:30:12;;;;;;;14.85;8.15;;;;;;;;;;5155589;27;20052;-59
2022/08/31 08:32:40;;;;;;;8.65;7.80;;;;;;;;;;5155481;27;20067;-59
2022/08/31 08:35:07;;;;;;;9.63;8.35;;;;;;;;;;5155460;27;20472;-59
2022/08/31 08:37:32;;;;;;;8.70;7.85;;;;;;;;;;5155428;27;20034;-59
2022/08/31 08:40:00;;;;;;;9.77;8.88;;;;;;;;;;5155052;27;20023;-59
2022/08/31 08:42:26;;;;;;;9.15;8.05;;;;;;;;;;5155077;27;20468;-59
2022/08/31 08:44:52;;;;;;;9.77;7.95;;;;;;;;;;5155590;27;20023;-59
2022/08/31 08:47:24;;;;;;;7.70;6.88;;;;;;;;;;5155420;27;20023;-59
2022/08/31 08:49:52;;;;;;;7.80;7.07;;;;;;;;;;5156250;27;20103;-59
2022/08/31 08:52:20;;;;;;;13.02;8.93;;;;;;;;;;5157934;27;20441;-59
2022/08/31 08:54:47;;;;;;;9.52;8.52;;;;;;;;;;5159769;27;20027;-59
2022/08/31 08:57:14;;;;;;;9.43;8.52;;;;;;;;;;5159384;27;20109;-59
2022/08/31 08:59:41;;;;;;;9.60;8.70;;;;;;;;;;5159345;27;20027;-59
2022/08/31 09:02:10;;;;;;;8.98;8.10;;;;;;;;;;5159372;27;20050;-59
2022/08/31 09:04:42;;;;;;;9.85;8.80;;;;;;;;;;5159919;27;20464;-59
2022/08/31 09:07:10;;;;;;;12.43;8.60;;;;;;;;;;5159330;27;20105;-59
2022/08/31 09:09:39;;;;;;;9.70;8.68;;;;;;;;;;5159681;27;20087;-59
2022/08/31 09:12:17;;;;;;;10.40;9.38;;;;;;;;;;5159192;27;20474;-59
2022/08/31 09:14:57;;;;;;;10.35;9.13;;;;;;;;;;5159129;27;20030;-59
2022/08/31 09:17:27;;;;;;;8.38;7.40;;;;;;;;;;5159933;27;20224;-59
2022/08/31 09:20:04;;;;;;;11.00;9.85;;;;;;;;;;5158941;27;20062;-59
2022/08/31 09:22:32;;;;;;;11.73;8.85;;;;;;;;;;5159582;27;20027;-59
2022/08/31 09:24:58;;;;;;;12.68;9.27;;;;;;;;;;5159011;27;20026;-59
2022/08/31 09:27:46;;;;;;;10.05;9.02;;;;;;;;;;5159444;27;20393;-59
2022/08/31 09:30:16;;;;;;;11.05;9.85;;;;;;;;;;5158860;27;20540;-59
2022/08/31 09:32:45;;;;;;;10.27;9.02;;;;;;;;;;5159058;27;20029;-58
2022/08/31 09:35:39;;;;;;;14.00;10.77;;;;;;;;;;5159031;27;20486;-59
2022/08/31 09:38:08;;;;;;;9.18;8.27;;;;;;;;;;5158995;27;20027;-59
2022/08/31 09:40:47;;;;;;;11.33;10.17;;;;;;;;;;5158531;27;20369;-59
2022/08/31 09:43:25;;;;;;;10.98;9.98;;;;;;;;;;5159386;27;20319;-59
2022/08/31 09:45:51;;;;;;;11.32;10.20;;;;;;;;;;5158423;27;20023;-59
2022/08/31 09:48:38;;;;;;;10.32;8.88;;;;;;;;;;5158757;27;20031;-59
2022/08/31 09:51:05;;;;;;;11.00;9.43;;;;;;;;;;5158474;27;20046;-59
2022/08/31 09:56:23;;;;;;;10.65;9.65;;;;;;;;;;5158660;27;20474;-59
2022/08/31 09:58:53;;;;;;;11.55;10.40;;;;;;;;;;5158493;27;20032;-59
2022/08/31 10:01:19;;;;;;;11.98;10.73;;;;;;;;;;5158464;27;20031;-59
2022/08/31 10:03:46;;;;;;;11.30;10.27;;;;;;;;;;5158868;27;20462;-59
2022/08/31 10:06:40;;;;;;;11.18;10.07;;;;;;;;;;5157832;27;20487;-59
2022/08/31 10:09:10;;;;;;;12.05;10.88;;;;;;;;;;5158081;27;20113;-59
2022/08/31 10:11:38;;;;;;;13.80;11.27;;;;;;;;;;5158669;27;20360;-59
2022/08/31 10:14:08;;;;;;;11.13;9.63;;;;;;;;;;5157994;27;20074;-59
2022/08/31 10:16:42;;;;;;;11.05;10.00;;;;;;;;;;5158004;27;20026;-59
2022/08/31 10:19:12;;;;;;;12.18;10.85;;;;;;;;;;5157776;27;20031;-59
2022/08/31 10:21:42;;;;;;;12.63;9.90;;;;;;;;;;5157858;27;20027;-59
2022/08/31 10:24:27;;;;;;;18.48;11.23;;;;;;;;;;5158627;27;20604;-59
2022/08/31 10:27:00;;;;;;;14.82;12.13;;;;;;;;;;5158303;27;20054;-59
2022/08/31 10:29:41;;;;;;;12.55;11.32;;;;;;;;;;5157727;27;20037;-59
2022/08/31 10:32:26;;;;;;;13.10;10.60;;;;;;;;;;5158165;27;20071;-58
2022/08/31 10:35:04;;;;;;;11.05;9.88;;;;;;;;;;5157514;27;20023;-59
2022/08/31 10:37:35;;;;;;;11.70;10.52;;;;;;;;;;5157479;27;20491;-59
2022/08/31 10:40:09;;;;;;;13.18;9.82;;;;;;;;;;5157568;27;20479;-59
2022/08/31 10:42:37;;;;;;;11.02;9.35;;;;;;;;;;5157666;27;20027;-59
2022/08/31 10:45:15;;;;;;;10.93;8.80;;;;;;;;;;5157308;27;20079;-59
2022/08/31 10:47:45;;;;;;;9.25;8.25;;;;;;;;;;5157705;27;20360;-59
2022/08/31 10:50:15;;;;;;;9.70;8.10;;;;;;;;;;5157301;27;20031;-58
2022/08/31 10:52:47;;;;;;;9.88;8.88;;;;;;;;;;5158141;27;20051;-59
2022/08/31 10:55:20;;;;;;;9.15;8.25;;;;;;;;;;5157992;27;20098;-59
2022/08/31 10:58:01;;;;;;;9.48;8.10;;;;;;;;;;5157042;27;20027;-59
2022/08/31 11:00:44;;;;;;;;;;;;;;;;;;5157802;27;20101;-59
2022/08/31 11:03:29;;;;;;;9.55;7.55;;;;;;;;;;5157664;27;19946;-59
2022/08/31 11:06:16;;;;;;;9.35;7.78;;;;;;;;;;5156962;27;20022;-58
2022/08/31 11:08:51;;;;;;;9.85;8.85;;;;;;;;;;5157206;27;20034;-58
2022/08/31 11:11:34;;;;;;;9.18;8.23;;;;;;;;;;5157126;27;20054;-58
2022/08/31 11:14:13;;;;;;;8.35;7.60;;;;;;;;;;5156474;27;20043;-59
2022/08/31 11:16:51;;;;;;;9.27;8.35;;;;;;;;;;5156707;27;20452;-58
2022/08/31 11:19:29;;;;;;;9.70;8.63;;;;;;;;;;5156562;27;20118;-58
2022/08/31 11:22:19;;;;;;;11.30;9.13;;;;;;;;;;5156949;27;20102;-59
2022/08/31 11:25:04;;;;;;;12.80;9.00;;;;;;;;;;5156633;27;20531;-58
2022/08/31 11:27:57;;;;;;;8.73;7.53;;;;;;;;;;5156138;27;20252;-58
2022/08/31 11:30:27;;;;;;;12.13;8.52;;;;;;;;;;5153598;27;20472;-59
2022/08/31 11:32:59;;;;;;;10.13;9.10;;;;;;;;;;5156442;27;20019;-58
2022/08/31 11:35:43;;;;;;;9.45;8.45;;;;;;;;;;5156280;27;20030;-59
2022/08/31 11:38:29;;;;;;;10.10;8.35;;;;;;;;;;5156223;27;20023;-58
2022/08/31 11:40:57;;;;;;;12.68;8.57;;;;;;;;;;5157198;27;20031;-58
2022/08/31 11:43:32;;;;;;;10.57;8.80;;;;;;;;;;5156721;27;20025;-59
2022/08/31 11:46:22;;;;;;;11.32;8.80;;;;;;;;;;5156362;27;20171;-59
2022/08/31 11:48:53;;;;;;;10.00;8.93;;;;;;;;;;5156174;27;20038;-58
2022/08/31 11:51:34;;;;;;;9.63;8.65;;;;;;;;;;5155676;27;20284;-59
2022/08/31 11:54:00;;;;;;;9.73;8.70;;;;;;;;;;5156885;27;20097;-59
2022/08/31 11:56:40;;;;;;;10.43;8.82;;;;;;;;;;5156089;27;20023;-59
2022/08/31 11:59:18;;;;;;;10.13;8.77;;;;;;;;;;5156095;27;20058;-58
2022/08/31 12:01:44;;;;;;;10.88;8.48;;;;;;;;;;5155919;27;20023;-59
2022/08/31 12:04:44;;;;;;;11.20;8.57;;;;;;;;;;5156252;27;20026;-58
2022/08/31 12:07:13;;;;;;;9.27;7.85;;;;;;;;;;5144015;27;20031;-59
2022/08/31 12:09:39;;;;;;;15.65;9.35;;;;;;;;;;5156114;27;20023;-59
2022/08/31 12:12:23;;;;;;;8.55;7.65;;;;;;;;;;5155803;27;20042;-59
2022/08/31 12:14:55;;;;;;;12.00;8.90;;;;;;;;;;5156297;27;20027;-58
2022/08/31 12:17:33;;;;;;;9.35;8.43;;;;;;;;;;5155689;27;20015;-58
2022/08/31 12:20:07;;;;;;;9.45;8.52;;;;;;;;;;5155867;27;20026;-58
2022/08/31 12:25:46;;;;;;;11.48;8.70;;;;;;;;;;5155007;27;20022;-58
2022/08/31 12:28:24;;;;;;;10.45;8.32;;;;;;;;;;5155169;27;20019;-59
2022/08/31 12:30:51;;;;;;;9.85;8.50;;;;;;;;;;5155487;27;20364;-59
2022/08/31 12:33:19;;;;;;;9.57;8.60;;;;;;;;;;5156009;27;20105;-58
2022/08/31 12:35:45;;;;;;;8.15;7.30;;;;;;;;;;5155206;27;20023;-59
2022/08/31 12:38:17;;;;;;;10.93;9.77;;;;;;;;;;5155449;27;20025;-59
2022/08/31 12:40:44;;;;;;;11.75;8.65;;;;;;;;;;5155752;27;20376;-58
2022/08/31 12:43:17;;;;;;;11.10;8.52;;;;;;;;;;5156037;27;20018;-59
2022/08/31 12:46:01;;;;;;;9.40;8.48;;;;;;;;;;5155334;27;20463;-59
2022/08/31 12:48:36;;;;;;;8.88;8.00;;;;;;;;;;5155465;27;20023;-59
2022/08/31 12:51:07;;;;;;;8.57;7.68;;;;;;;;;;5155071;27;20441;-59
2022/08/31 12:53:45;;;;;;;9.77;8.60;;;;;;;;;;5155717;27;20026;-58
2022/08/31 12:56:18;;;;;;;11.38;8.32;;;;;;;;;;5155938;27;20091;-58
2022/08/31 12:58:56;;;;;;;11.70;8.45;;;;;;;;;;5155904;27;20015;-59
2022/08/31 13:01:23;;;;;;;9.30;8.18;;;;;;;;;;5155571;27;20494;-58
2022/08/31 13:03:52;;;;;;;10.40;8.07;;;;;;;;;;5155867;27;20019;-59
2022/08/31 13:06:28;;;;;;;11.70;9.05;;;;;;;;;;5155766;27;20105;-58
2022/08/31 13:08:54;;;;;;;8.75;7.85;;;;;;;;;;5156027;27;20011;-58
2022/08/31 13:11:23;;;;;;;9.75;8.75;;;;;;;;;;5155138;27;20050;-59
2022/08/31 13:13:49;;;;;;;9.18;8.27;;;;;;;;;;5155773;27;20015;-59
2022/08/31 13:16:16;;;;;;;9.55;8.55;;;;;;;;;;5155152;27;20368;-58
2022/08/31 13:18:42;;;;;;;10.82;9.75;;;;;;;;;;5155116;27;20027;-59
2022/08/31 13:21:09;;;;;;;10.18;7.95;;;;;;;;;;5155848;27;20038;-59
2022/08/31 13:23:40;;;;;;;11.32;8.38;;;;;;;;;;5156249;27;20352;-58
2022/08/31 13:26:12;;;;;;;;;;;;;;;;;;5156055;27;20329;-58
2022/08/31 13:28:38;;;;;;;8.27;7.47;;;;;;;;;;5155264;27;19903;-58
2022/08/31 13:31:08;;;;;;;10.13;9.13;;;;;;;;;;5155018;27;20376;-59
2022/08/31 13:33:35;;;;;;;8.13;7.32;;;;;;;;;;5155012;27;20019;-59
2022/08/31 13:36:08;;;;;;;9.65;8.23;;;;;;;;;;5154926;27;20033;-59
2022/08/31 13:38:41;;;;;;;9.82;8.80;;;;;;;;;;5156993;27;20018;-58
2022/08/31 13:41:34;;;;;;;12.07;8.80;;;;;;;;;;5159186;27;20019;-58
2022/08/31 13:44:01;;;;;;;10.35;8.80;;;;;;;;;;5156046;27;20524;-58
2022/08/31 13:46:31;;;;;;;8.93;8.00;;;;;;;;;;5158461;27;20491;-58
2022/08/31 13:49:00;;;;;;;11.63;9.80;;;;;;;;;;5158221;27;20468;-58
2022/08/31 13:51:32;;;;;;;10.07;8.80;;;;;;;;;;5158307;27;20078;-59
2022/08/31 13:54:02;;;;;;;9.63;8.48;;;;;;;;;;5158103;27;20431;-59
2022/08/31 13:59:27;;;;;;;8.68;7.78;;;;;;;;;;5157995;27;20287;-58
2022/08/31 14:01:54;;;;;;;9.88;8.05;;;;;;;;;;5158774;27;20027;-59
2022/08/31 14:04:47;;;;;;;9.23;7.78;;;;;;;;;;5158161;27;20019;-59
2022/08/31 14:07:18;;;;;;;10.25;7.55;;;;;;;;;;5158487;27;20046;-58
2022/08/31 14:09:44;;;;;;;;;;;;;;;;;;5159096;27;20058;-59
2022/08/31 14:12:18;;;;;;;8.43;7.53;;;;;;;;;;5158052;27;19938;-58
2022/08/31 14:14:45;;;;;;;10.43;6.72;;;;;;;;;;5158588;27;20394;-58
2022/08/31 14:17:15;;;;;;;10.10;7.50;;;;;;;;;;5158456;27;20051;-59
2022/08/31 14:19:42;;;;;;;9.30;7.45;;;;;;;;;;5158147;27;20130;-59
2022/08/31 14:22:24;;;;;;;8.10;6.85;;;;;;;;;;5158607;27;20414;-58
2022/08/31 14:24:50;;;;;;;11.15;7.22;;;;;;;;;;5158681;27;20465;-58
2022/08/31 14:27:16;;;;;;;8.23;7.35;;;;;;;;;;5157755;27;20019;-59
2022/08/31 14:29:42;;;;;;;8.95;7.10;;;;;;;;;;5158515;27;20108;-59
2022/08/31 14:32:08;;;;;;;10.30;6.90;;;;;;;;;;5157674;27;20099;-59
2022/08/31 14:34:34;;;;;;;8.13;6.80;;;;;;;;;;5157531;27;20075;-59
2022/08/31 14:37:05;;;;;;;9.38;6.45;;;;;;;;;;5157607;27;20023;-59
2022/08/31 14:39:31;;;;;;;7.80;6.53;;;;;;;;;;5157532;27;20030;-59
2022/08/31 14:41:59;;;;;;;7.32;6.63;;;;;;;;;;5157313;27;20031;-59
2022/08/31 14:44:27;;;;;;;9.07;7.00;;;;;;;;;;5157735;27;20019;-59
2022/08/31 14:46:53;;;;;;;9.65;7.35;;;;;;;;;;5157851;27;20031;-59
2022/08/31 14:49:19;;;;;;;8.48;5.80;;;;;;;;;;5156398;27;20356;-59
2022/08/31 14:51:46;;;;;;;6.60;6.00;;;;;;;;;;5157101;27;20058;-59
2022/08/31 14:54:14;;;;;;;6.03;5.38;;;;;;;;;;5157165;27;20031;-58
2022/08/31 14:56:46;;;;;;;8.20;6.25;;;;;;;;;;5157051;27;20026;-59
2022/08/31 14:59:15;;;;;;;7.55;6.57;;;;;;;;;;5156885;27;20031;-59
2022/08/31 15:01:43;;;;;;;6.95;6.20;;;;;;;;;;5156888;27;20119;-58
2022/08/31 15:04:09;;;;;;;7.35;5.65;;;;;;;;;;5157501;27;20138;-59
2022/08/31 15:06:35;;;;;;;6.72;6.00;;;;;;;;;;5156761;27;20049;-59